Time;durP1;ratioP1;P1;durP2;ratioP2;P2;SDS_P1;SDS_P2;PMS_P1;PMS_P2;Temp;Humidity;BMP_temperature;BMP_pressure;BME280_temperature;BME280_humidity;BME280_pressure;Samples;Min_cycle;Max_cycle;Signal;HPM_P1;HPM_P2
2022/12/01 00:00:06;;;;;;;;;;;;;;;28.74;42.74;97480.59;606305;234;66810;-69
2022/12/01 00:02:32;;;;;;;;;;;;;;;28.73;41.32;97483.63;606300;234;67275;-69
2022/12/01 00:05:01;;;;;;;;;;;;;;;28.72;41.17;97501.73;606287;234;65033;-69
2022/12/01 00:07:28;;;;;;;;;;;;;;;28.71;41.94;97485.84;606299;234;67079;-69
2022/12/01 00:12:42;;;;;;;;;;;;;;;28.69;41.35;97482.64;606358;234;65180;-69
2022/12/01 00:15:10;;;;;;;;;;;;;;;28.68;42.03;97483.75;606267;234;66955;-69
2022/12/01 00:17:38;;;;;;;;;;;;;;;28.66;42.27;97491.38;606267;234;66838;-70
2022/12/01 00:20:06;;;;;;;;;;;;;;;28.64;42.79;97488.97;606286;234;65087;-63
2022/12/01 00:22:34;;;;;;;;;;;;;;;28.65;41.95;97489.79;606284;234;67081;-69
2022/12/01 00:25:01;;;;;;;;;;;;;;;28.64;41.60;97490.88;606350;234;66819;-69
2022/12/01 00:27:28;;;;;;;;;;;;;;;28.62;41.97;97488.50;606294;234;65046;-69
2022/12/01 00:29:56;;;;;;;;;;;;;;;28.61;41.15;97492.30;606273;234;64629;-69
2022/12/01 00:32:23;;;;;;;;;;;;;;;28.60;42.80;97490.70;606322;234;64326;-69
2022/12/01 00:34:51;;;;;;;;;;;;;;;28.59;41.42;97491.80;606289;234;62976;-69
2022/12/01 00:37:18;;;;;;;;;;;;;;;28.59;43.20;97491.00;606325;234;64703;-70
2022/12/01 00:39:46;;;;;;;;;;;;;;;28.57;41.90;97485.92;606292;234;66875;-69
2022/12/01 00:42:13;;;;;;;;;;;;;;;28.57;42.24;97487.83;606306;234;64875;-69
2022/12/01 00:44:41;;;;;;;;;;;;;;;28.54;42.15;97486.55;606279;234;67002;-69
2022/12/01 00:47:08;;;;;;;;;;;;;;;28.54;42.33;97486.55;606255;234;66837;-69
2022/12/01 00:49:36;;;;;;;;;;;;;;;28.52;41.86;97486.05;606311;234;65016;-69
2022/12/01 00:52:03;;;;;;;;;;;;;;;28.51;41.64;97476.32;606285;234;67040;-69
2022/12/01 00:54:31;;;;;;;;;;;;;;;28.50;41.52;97472.03;606300;234;66847;-69
2022/12/01 00:56:59;;;;;;;;;;;;;;;28.49;41.92;97473.15;606313;234;62486;-69
2022/12/01 00:59:27;;;;;;;;;;;;;;;28.47;40.27;97470.74;606248;234;64432;-69
2022/12/01 01:01:54;;;;;;;;;;;;;;;28.47;43.03;97478.85;606371;234;64650;-69
2022/12/01 01:04:22;;;;;;;;;;;;;;;28.46;44.03;97471.06;606253;234;64981;-69
2022/12/01 01:06:49;;;;;;;;;;;;;;;28.44;41.99;97468.66;606265;234;67143;-69
2022/12/01 01:09:17;;;;;;;;;;;;;;;28.43;41.67;97467.08;606309;234;64716;-63
2022/12/01 01:11:45;;;;;;;;;;;;;;;28.42;42.76;97468.13;606283;234;62972;-63
2022/12/01 01:14:12;;;;;;;;;;;;;;;28.42;41.48;97464.64;606260;234;64771;-63
2022/12/01 01:16:39;;;;;;;;;;;;;;;28.39;41.88;97460.64;606327;234;66820;-63
2022/12/01 01:19:07;;;;;;;;;;;;;;;28.39;42.03;97466.05;606298;234;65005;-63
2022/12/01 01:21:34;;;;;;;;;;;;;;;28.37;42.10;97465.55;606298;234;66940;-63
2022/12/01 01:24:02;;;;;;;;;;;;;;;28.36;42.60;97455.86;606274;234;66777;-63
2022/12/01 01:26:31;;;;;;;;;;;;;;;28.36;41.42;97463.17;606269;234;65308;-63
2022/12/01 01:29:00;;;;;;;;;;;;;;;28.34;42.38;97456.16;606326;234;66935;-63
2022/12/01 01:31:28;;;;;;;;;;;;;;;28.32;41.79;97455.69;606237;234;66833;-63
2022/12/01 01:33:56;;;;;;;;;;;;;;;28.33;42.91;97459.18;606307;234;65003;-63
2022/12/01 01:36:24;;;;;;;;;;;;;;;28.31;41.95;97456.77;606281;234;64707;-63
2022/12/01 01:38:53;;;;;;;;;;;;;;;28.29;43.41;97461.71;606268;234;64762;-63
2022/12/01 01:41:21;;;;;;;;;;;;;;;28.28;42.92;97457.39;606317;234;65805;-63
2022/12/01 01:43:50;;;;;;;;;;;;;;;28.28;42.34;97451.20;606315;234;66948;-68
2022/12/01 01:46:18;;;;;;;;;;;;;;;28.26;43.11;97450.70;606348;234;64285;-69
2022/12/01 01:48:50;;;;;;;;;;;;;;;28.25;43.91;97449.91;606596;234;62996;-68
2022/12/01 01:51:19;;;;;;;;;;;;;;;28.24;43.77;97452.94;606867;234;66792;-69
2022/12/01 01:53:48;;;;;;;;;;;;;;;28.22;42.74;97442.42;606877;234;66926;-69
2022/12/01 01:56:16;;;;;;;;;;;;;;;28.22;42.60;97450.52;606907;234;63095;-69
2022/12/01 01:58:43;;;;;;;;;;;;;;;28.20;43.63;97450.03;606853;234;64702;-69
2022/12/01 02:01:11;;;;;;;;;;;;;;;28.19;42.20;97445.73;606872;234;64395;-69
2022/12/01 02:03:40;;;;;;;;;;;;;;;28.19;44.07;97442.25;606872;234;62886;-69
2022/12/01 02:06:09;;;;;;;;;;;;;;;28.17;43.00;97444.45;606812;234;66740;-63
2022/12/01 02:08:37;;;;;;;;;;;;;;;28.16;44.81;97448.27;606895;234;64932;-63
2022/12/01 02:11:22;;;;;;;;;;;;;;;28.14;43.16;97445.07;606885;234;65162;-63
2022/12/01 02:14:01;;;;;;;;;;;;;;;28.14;42.61;97440.45;606891;234;64378;-62
2022/12/01 02:16:32;;;;;;;;;;;;;;;28.13;43.32;97440.75;606836;234;66810;-62
2022/12/01 02:19:17;;;;;;;;;;;;;;;28.10;42.35;97434.88;606577;233;63016;-62
2022/12/01 02:21:46;;;;;;;;;;;;;;;28.09;42.23;97435.17;606039;234;67231;-63
2022/12/01 02:24:15;;;;;;;;;;;;;;;28.07;42.95;97443.60;605903;234;66666;-63
2022/12/01 02:27:02;;;;;;;;;;;;;;;28.06;43.56;97433.88;606875;234;65009;-62
2022/12/01 02:29:40;;;;;;;;;;;;;;;28.06;42.61;97435.80;606839;234;67024;-63
2022/12/01 02:32:12;;;;;;;;;;;;;;;28.03;42.50;97437.20;606887;234;66888;-62
2022/12/01 02:34:41;;;;;;;;;;;;;;;28.02;43.13;97434.80;606796;234;65275;-63
2022/12/01 02:37:20;;;;;;;;;;;;;;;28.01;44.34;97431.30;606860;234;64743;-63
2022/12/01 02:39:51;;;;;;;;;;;;;;;28.01;41.75;97441.31;606890;234;66763;-63
2022/12/01 02:45:07;;;;;;;;;;;;;;;27.99;43.47;97424.61;606904;234;67041;-63
2022/12/01 02:47:36;;;;;;;;;;;;;;;27.97;42.39;97437.64;606739;234;62942;-63
2022/12/01 02:50:05;;;;;;;;;;;;;;;27.97;42.42;97438.44;606312;234;65021;-62
2022/12/01 02:52:33;;;;;;;;;;;;;;;27.95;43.95;97426.34;606320;234;67025;-63
2022/12/01 02:55:00;;;;;;;;;;;;;;;27.94;43.05;97425.55;606298;234;66814;-63
2022/12/01 02:57:29;;;;;;;;;;;;;;;27.94;44.03;97430.95;606364;234;65001;-69
2022/12/01 02:59:57;;;;;;;;;;;;;;;27.92;42.99;97424.25;606271;234;66961;-68
2022/12/01 03:02:47;;;;;;;;;;;;;;;27.90;45.61;97427.25;606305;234;66837;-69
2022/12/01 03:05:15;;;;;;;;;;;;;;;27.88;43.92;97424.05;606205;234;65068;-69
2022/12/01 03:07:57;;;;;;;;;;;;;;;27.88;44.05;97424.05;602585;234;65132;-69
2022/12/01 03:10:43;;;;;;;;;;;;;;;27.86;45.86;97428.98;606295;234;67376;-69
2022/12/01 03:13:18;;;;;;;;;;;;;;;27.84;42.80;97429.27;606300;234;63149;-69
2022/12/01 03:15:47;;;;;;;;;;;;;;;27.85;42.56;97430.06;606314;234;67112;-69
2022/12/01 03:18:22;;;;;;;;;;;;;;;27.83;43.59;97433.09;606094;234;67069;-69
2022/12/01 03:20:52;;;;;;;;;;;;;;;27.81;43.04;97426.39;606192;234;62955;-69
2022/12/01 03:23:20;;;;;;;;;;;;;;;27.79;42.23;97423.95;606261;234;68044;-69
2022/12/01 03:25:50;;;;;;;;;;;;;;;27.79;43.51;97431.27;606306;234;64814;-69
2022/12/01 03:28:19;;;;;;;;;;;;;;;27.78;43.61;97432.37;606365;234;65100;-69
2022/12/01 03:30:48;;;;;;;;;;;;;;;27.77;46.63;97428.06;606277;234;67012;-69
2022/12/01 03:33:18;;;;;;;;;;;;;;;27.75;43.70;97414.88;606292;234;64818;-69
2022/12/01 03:35:46;;;;;;;;;;;;;;;27.74;42.26;97417.87;605530;234;65147;-63
2022/12/01 03:38:19;;;;;;;;;;;;;;;27.73;43.91;97419.78;606146;233;67499;-63
2022/12/01 03:40:48;;;;;;;;;;;;;;;27.73;47.34;97421.69;606306;234;67012;-62
2022/12/01 03:43:17;;;;;;;;;;;;;;;27.70;42.91;97423.09;606346;234;65026;-63
2022/12/01 03:45:49;;;;;;;;;;;;;;;27.70;43.13;97412.30;606286;234;67281;-63
2022/12/01 03:48:17;;;;;;;;;;;;;;;27.68;43.50;97407.19;605197;234;67141;-63
2022/12/01 03:50:46;;;;;;;;;;;;;;;27.68;43.38;97406.39;606851;234;64981;-63
2022/12/01 03:53:18;;;;;;;;;;;;;;;27.68;43.31;97414.50;606153;234;64958;-62
2022/12/01 03:55:46;;;;;;;;;;;;;;;27.66;42.91;97416.70;606841;234;64966;-63
2022/12/01 03:58:15;;;;;;;;;;;;;;;27.67;42.46;97421.01;606825;234;65040;-63
2022/12/01 04:00:45;;;;;;;;;;;;;;;27.64;42.36;97413.52;606768;234;67075;-62
2022/12/01 04:03:14;;;;;;;;;;;;;;;27.62;43.85;97416.52;606840;234;67137;-62
2022/12/01 04:05:43;;;;;;;;;;;;;;;27.62;42.80;97424.61;606178;233;65113;-62
2022/12/01 04:08:10;;;;;;;;;;;;;;;27.61;44.42;97419.50;606810;234;65098;-63
2022/12/01 04:10:38;;;;;;;;;;;;;;;27.59;43.60;97419.03;606872;234;64931;-62
2022/12/01 04:13:10;;;;;;;;;;;;;;;27.58;42.71;97417.42;606824;234;62941;-62
2022/12/01 04:15:34;;;;;;;;;;;;;;;27.58;43.85;97418.24;606672;234;67242;-62
2022/12/01 04:18:02;;;;;;;;;;;;;;;27.57;45.24;97423.93;606857;234;66589;-62
2022/12/01 04:20:29;;;;;;;;;;;;;;;27.56;43.89;97417.73;606824;234;63100;-63
2022/12/01 04:22:57;;;;;;;;;;;;;;;27.56;44.90;97419.64;606888;234;67259;-63
2022/12/01 04:25:24;;;;;;;;;;;;;;;27.54;44.50;97425.34;606817;234;65172;-63
2022/12/01 04:27:52;;;;;;;;;;;;;;;27.52;44.01;97424.04;606806;234;63016;-62
2022/12/01 04:30:20;;;;;;;;;;;;;;;27.52;43.44;97426.74;606748;234;67278;-62
2022/12/01 04:32:47;;;;;;;;;;;;;;;27.51;43.51;97425.16;606818;234;67049;-69
2022/12/01 04:35:14;;;;;;;;;;;;;;;27.50;44.39;97429.77;606877;234;65093;-69
2022/12/01 04:37:42;;;;;;;;;;;;;;;27.47;46.39;97429.55;606714;234;67345;-69
2022/12/01 04:40:10;;;;;;;;;;;;;;;27.46;44.77;97436.85;606627;234;64684;-69
2022/12/01 04:42:37;;;;;;;;;;;;;;;27.45;43.87;97432.56;605970;234;65437;-69
2022/12/01 04:45:05;;;;;;;;;;;;;;;27.44;43.49;97436.34;606840;234;66947;-69
2022/12/01 04:47:32;;;;;;;;;;;;;;;27.44;43.62;97436.34;606801;234;67200;-69
2022/12/01 04:50:00;;;;;;;;;;;;;;;27.43;44.93;97426.66;606314;234;65001;-69
2022/12/01 04:52:27;;;;;;;;;;;;;;;27.41;44.82;97426.16;606825;234;65392;-69
2022/12/01 04:54:55;;;;;;;;;;;;;;;27.39;43.29;97417.56;606807;233;64958;-69
2022/12/01 04:57:22;;;;;;;;;;;;;;;27.38;43.31;97421.38;606798;234;62853;-69
2022/12/01 04:59:50;;;;;;;;;;;;;;;27.38;43.53;97418.67;606809;234;65115;-69
2022/12/01 05:02:17;;;;;;;;;;;;;;;27.37;45.55;97414.39;606820;234;64983;-69
2022/12/01 05:04:46;;;;;;;;;;;;;;;27.35;44.67;97417.37;606719;234;63866;-69
2022/12/01 05:07:14;;;;;;;;;;;;;;;27.33;44.36;97421.48;606806;234;67291;-69
2022/12/01 05:09:42;;;;;;;;;;;;;;;27.32;45.04;97415.29;606846;234;67021;-71
2022/12/01 05:12:09;;;;;;;;;;;;;;;27.32;43.15;97417.98;606825;234;62830;-71
2022/12/01 05:14:36;;;;;;;;;;;;;;;27.31;44.01;97418.28;606861;234;67043;-68
2022/12/01 05:17:04;;;;;;;;;;;;;;;27.31;44.15;97415.58;606788;234;66977;-68
2022/12/01 05:22:17;;;;;;;;;;;;;;;27.29;44.13;97412.41;606656;234;65103;-70
2022/12/01 05:24:44;;;;;;;;;;;;;;;27.27;43.81;97420.00;606795;234;64842;-70
2022/12/01 05:27:12;;;;;;;;;;;;;;;27.27;43.72;97414.60;606793;234;65037;-70
2022/12/01 05:29:39;;;;;;;;;;;;;;;27.28;44.53;97405.39;606295;234;64924;-70
2022/12/01 05:32:07;;;;;;;;;;;;;;;27.24;43.94;97416.00;606753;234;64740;-69
2022/12/01 05:34:34;;;;;;;;;;;;;;;27.25;43.75;97420.28;606730;234;62823;-70
2022/12/01 05:37:02;;;;;;;;;;;;;;;27.25;43.36;97414.09;606815;234;66012;-69
2022/12/01 05:39:29;;;;;;;;;;;;;;;27.23;43.24;97415.21;606845;234;67368;-70
2022/12/01 05:41:57;;;;;;;;;;;;;;;27.23;43.60;97417.91;606811;234;65019;-69
2022/12/01 05:44:24;;;;;;;;;;;;;;;27.25;43.63;97416.80;606844;234;65074;-70
2022/12/01 05:46:52;;;;;;;;;;;;;;;27.23;43.89;97419.81;606812;234;64918;-69
2022/12/01 05:49:19;;;;;;;;;;;;;;;27.24;44.84;97426.80;606847;234;63835;-69
2022/12/01 05:51:47;;;;;;;;;;;;;;;27.23;43.85;97423.30;606829;234;64876;-69
2022/12/01 05:54:15;;;;;;;;;;;;;;;27.25;45.56;97427.59;606935;234;66761;-69
2022/12/01 05:56:42;;;;;;;;;;;;;;;27.26;44.85;97429.20;606887;234;62965;-69
2022/12/01 05:59:10;;;;;;;;;;;;;;;27.27;44.67;97430.80;606795;234;64490;-69
2022/12/01 06:01:37;;;;;;;;;;;;;;;27.27;45.16;97430.80;606795;234;66818;-69
2022/12/01 06:04:05;;;;;;;;;;;;;;;27.27;44.85;97436.98;606819;234;62571;-70
2022/12/01 06:06:32;;;;;;;;;;;;;;;27.29;44.60;97429.39;606908;234;65100;-69
2022/12/01 06:09:00;;;;;;;;;;;;;;;27.30;45.04;97433.67;606855;234;64697;-69
2022/12/01 06:11:27;;;;;;;;;;;;;;;27.31;44.25;97435.30;606888;234;62722;-69
2022/12/01 06:13:55;;;;;;;;;;;;;;;27.34;45.49;97439.29;606833;234;64704;-69
2022/12/01 06:16:22;;;;;;;;;;;;;;;27.35;44.49;97436.27;606866;234;66963;-69
2022/12/01 06:18:50;;;;;;;;;;;;;;;27.36;45.53;97437.86;606873;234;65025;-69
2022/12/01 06:21:17;;;;;;;;;;;;;;;27.38;43.34;97438.36;606874;234;67265;-69
2022/12/01 06:23:45;;;;;;;;;;;;;;;27.39;44.31;97434.58;606853;234;64855;-69
2022/12/01 06:26:12;;;;;;;;;;;;;;;27.40;43.67;97430.77;606847;234;62848;-64
2022/12/01 06:28:41;;;;;;;;;;;;;;;27.43;44.82;97429.37;606770;234;67650;-64
2022/12/01 06:31:09;;;;;;;;;;;;;;;27.44;41.77;97431.75;606910;234;64813;-64
2022/12/01 06:33:36;;;;;;;;;;;;;;;27.47;42.86;97430.34;606829;234;62923;-64
2022/12/01 06:36:05;;;;;;;;;;;;;;;27.48;42.82;97429.26;606871;234;64956;-64
2022/12/01 06:38:34;;;;;;;;;;;;;;;27.50;42.19;97432.45;606816;234;66958;-64
2022/12/01 06:41:01;;;;;;;;;;;;;;;27.53;44.35;97431.03;606808;234;65154;-64
2022/12/01 06:43:29;;;;;;;;;;;;;;;27.54;43.30;97435.34;606879;234;67259;-64
2022/12/01 06:45:57;;;;;;;;;;;;;;;27.57;44.03;97446.33;606920;234;64606;-64
2022/12/01 06:48:24;;;;;;;;;;;;;;;27.58;44.05;97442.54;606544;233;62911;-64
2022/12/01 06:50:53;;;;;;;;;;;;;;;27.59;43.28;97438.73;606218;234;65059;-64
2022/12/01 06:53:21;;;;;;;;;;;;;;;27.62;43.99;97442.72;606182;234;67376;-63
2022/12/01 06:55:48;;;;;;;;;;;;;;;27.63;44.14;97441.61;606246;234;65033;-64
2022/12/01 06:58:16;;;;;;;;;;;;;;;27.64;43.34;97433.22;606340;234;67224;-63
2022/12/01 07:00:43;;;;;;;;;;;;;;;27.65;44.51;97442.11;605412;234;64839;-64
2022/12/01 07:03:12;;;;;;;;;;;;;;;27.68;43.58;97439.59;601034;234;62912;-64
2022/12/01 07:05:39;;;;;;;;;;;;;;;27.70;40.66;97436.59;606237;234;67335;-64
2022/12/01 07:08:07;;;;;;;;;;;;;;;27.73;43.38;97440.59;606098;234;66868;-64
2022/12/01 07:10:34;;;;;;;;;;;;;;;27.74;43.51;97440.27;606145;234;63017;-69
2022/12/01 07:13:02;;;;;;;;;;;;;;;27.76;44.46;97442.68;606228;234;64647;-69
2022/12/01 07:15:29;;;;;;;;;;;;;;;27.77;45.34;97442.36;606195;234;64880;-70
2022/12/01 07:17:56;;;;;;;;;;;;;;;27.79;42.12;97442.86;606253;234;62983;-70
2022/12/01 07:20:24;;;;;;;;;;;;;;;27.80;44.71;97433.70;606219;234;65134;-69
2022/12/01 07:22:53;;;;;;;;;;;;;;;27.82;41.71;97436.08;606220;234;65080;-70
2022/12/01 07:25:21;;;;;;;;;;;;;;;27.84;40.22;97437.38;606211;234;64909;-69
2022/12/01 07:27:48;;;;;;;;;;;;;;;27.86;44.01;97439.78;606306;232;64930;-63
2022/12/01 07:30:16;;;;;;;;;;;;;;;27.86;43.69;97437.08;601235;233;64904;-64
2022/12/01 07:32:43;;;;;;;;;;;;;;;27.87;46.15;97441.37;599541;235;63055;-64
2022/12/01 07:35:11;;;;;;;;;;;;;;;27.88;43.56;97440.25;615608;230;65054;-64
2022/12/01 07:37:38;;;;;;;;;;;;;;;27.90;41.21;97448.86;615640;230;65091;-64
2022/12/01 07:40:06;;;;;;;;;;;;;;;27.91;42.97;97445.07;615622;230;62876;-64
2022/12/01 07:42:34;;;;;;;;;;;;;;;27.92;44.24;97452.05;615573;230;67350;-63
2022/12/01 07:45:01;;;;;;;;;;;;;;;27.93;43.61;97450.94;615585;230;66958;-64
2022/12/01 07:47:29;;;;;;;;;;;;;;;27.94;42.07;97449.03;615402;230;66114;-62
2022/12/01 07:49:56;;;;;;;;;;;;;;;27.95;38.11;97451.44;612962;231;67237;-61
2022/12/01 07:52:24;;;;;;;;;;;;;;;27.95;43.63;97451.44;612967;231;68058;-64
2022/12/01 07:54:51;;;;;;;;;;;;;;;27.93;39.19;97453.64;612948;231;65019;-63
2022/12/01 07:57:19;;;;;;;;;;;;;;;27.93;43.91;97447.45;612904;231;67074;-63
2022/12/01 07:59:46;;;;;;;;;;;;;;;27.92;43.90;97451.27;612918;231;66846;-65
2022/12/01 08:02:14;;;;;;;;;;;;;;;27.93;43.65;97450.15;612996;231;65107;-64
2022/12/01 08:04:42;;;;;;;;;;;;;;;27.93;44.85;97447.45;612859;231;67239;-64
2022/12/01 08:07:10;;;;;;;;;;;;;;;27.92;44.31;97446.66;612933;231;67376;-64
2022/12/01 08:09:37;;;;;;;;;;;;;;;27.93;42.77;97437.44;612928;231;64856;-65
2022/12/01 08:12:05;;;;;;;;;;;;;;;27.95;44.73;97447.95;612870;231;67285;-65
2022/12/01 08:14:32;;;;;;;;;;;;;;;27.95;43.96;97448.74;612960;231;66953;-64
2022/12/01 08:17:00;;;;;;;;;;;;;;;27.94;44.16;97444.45;612890;231;65013;-65
2022/12/01 08:19:28;;;;;;;;;;;;;;;27.95;45.92;97448.74;612866;231;67166;-65
2022/12/01 08:21:55;;;;;;;;;;;;;;;27.95;44.00;97445.25;612978;231;67004;-65
2022/12/01 08:24:23;;;;;;;;;;;;;;;27.96;43.92;97449.53;612978;231;65041;-64
2022/12/01 08:26:51;;;;;;;;;;;;;;;27.97;43.69;97453.85;612965;231;64697;-63
2022/12/01 08:29:18;;;;;;;;;;;;;;;27.97;38.67;97451.94;612934;231;64990;-64
2022/12/01 08:31:46;;;;;;;;;;;;;;;27.99;42.03;97451.62;612779;231;62869;-64
2022/12/01 08:34:14;;;;;;;;;;;;;;;28.00;43.89;97447.83;612944;231;66005;-64
2022/12/01 08:36:43;;;;;;;;;;;;;;;27.99;43.07;97440.81;612988;231;67133;-64
2022/12/01 08:39:11;;;;;;;;;;;;;;;28.00;43.14;97439.73;609009;231;64922;-63
2022/12/01 08:41:38;;;;;;;;;;;;;;;28.01;42.77;97441.31;604221;233;67254;-63
2022/12/01 08:44:06;;;;;;;;;;;;;;;28.01;41.88;97441.31;595297;238;67085;-64
2022/12/01 08:46:34;;;;;;;;;;;;;;;28.02;44.62;97435.61;598540;237;65098;-64
2022/12/01 08:49:02;;;;;;;;;;;;;;;28.02;43.78;97438.31;606593;233;67368;-63
2022/12/01 08:51:30;;;;;;;;;;;;;;;28.03;43.62;97436.41;615621;230;67709;-64
2022/12/01 08:53:58;;;;;;;;;;;;;;;28.03;43.37;97431.01;598640;232;62745;-71
2022/12/01 08:56:30;;;;;;;;;;;;;;;28.04;43.71;97438.78;599117;237;64980;-70
2022/12/01 08:58:57;;;;;;;;;;;;;;;28.05;43.19;97437.70;599172;237;64898;-71
2022/12/01 09:01:25;;;;;;;;;;;;;;;28.05;43.75;97428.80;599063;237;63137;-70
2022/12/01 09:04:03;;;;;;;;;;;;;;;28.05;43.88;97429.59;599167;237;67307;-70
2022/12/01 09:06:22;;;;;;;;;;;;;;;28.06;44.73;97431.18;598892;236;67212;-71
2022/12/01 09:08:49;;;;;;;;;;;;;;;28.06;45.51;97423.08;599118;237;65178;-71
2022/12/01 09:11:18;;;;;;;;;;;;;;;28.06;43.13;97420.38;599141;237;67260;-70
2022/12/01 09:13:46;;;;;;;;;;;;;;;28.09;44.11;97424.37;599219;237;66795;-71
2022/12/01 09:16:15;;;;;;;;;;;;;;;28.09;44.31;97418.96;599108;237;65098;-71
2022/12/01 09:18:43;;;;;;;;;;;;;;;28.10;41.94;97417.84;599198;237;67359;-71
2022/12/01 09:21:15;;;;;;;;;;;;;;;28.11;45.24;97417.55;599115;237;67318;-71
2022/12/01 09:23:43;;;;;;;;;;;;;;;28.11;43.75;97412.15;598439;236;64917;-70
2022/12/01 09:26:11;;;;;;;;;;;;;;;28.14;45.07;97409.94;599192;237;67189;-70
2022/12/01 09:28:38;;;;;;;;;;;;;;;28.15;42.65;97409.61;599188;237;66984;-68
2022/12/01 09:31:07;;;;;;;;;;;;;;;28.18;43.65;97416.31;599149;237;65795;-71
2022/12/01 09:33:35;;;;;;;;;;;;;;;28.18;42.93;97416.31;599215;237;65112;-72
2022/12/01 09:36:04;;;;;;;;;;;;;;;28.19;44.82;97421.42;599124;237;67003;-70
2022/12/01 09:38:32;;;;;;;;;;;;;;;28.18;43.11;97405.50;599193;237;65124;-70
2022/12/01 09:41:02;;;;;;;;;;;;;;;28.20;42.01;97406.00;599170;237;66991;-70
2022/12/01 09:43:31;;;;;;;;;;;;;;;28.19;44.63;97402.50;599490;233;64468;-70
2022/12/01 09:46:01;;;;;;;;;;;;;;;28.21;44.99;97394.07;606119;233;63218;-70
2022/12/01 09:48:32;;;;;;;;;;;;;;;28.21;42.52;97403.00;606414;233;67464;-70
2022/12/01 09:51:00;;;;;;;;;;;;;;;28.22;45.12;97396.48;606718;234;67718;-70
2022/12/01 09:53:30;;;;;;;;;;;;;;;28.23;44.84;97398.06;606748;234;63028;-70
2022/12/01 09:55:58;;;;;;;;;;;;;;;28.23;42.52;97387.25;605769;234;67367;-71
2022/12/01 09:58:27;;;;;;;;;;;;;;;28.25;42.09;97389.66;606784;234;66993;-70
2022/12/01 10:00:54;;;;;;;;;;;;;;;28.26;43.58;97385.84;606709;234;65045;-70
2022/12/01 10:03:29;;;;;;;;;;;;;;;28.24;43.22;97385.38;606806;234;64702;-70
2022/12/01 10:05:58;;;;;;;;;;;;;;;28.23;43.50;97381.84;606640;233;66854;-70
2022/12/01 10:08:33;;;;;;;;;;;;;;;28.24;45.34;97379.97;606799;234;65193;-70
2022/12/01 10:11:02;;;;;;;;;;;;;;;28.25;44.48;97384.25;606750;234;66886;-68
2022/12/01 10:13:29;;;;;;;;;;;;;;;28.25;43.86;97381.55;606629;233;66877;-69
2022/12/01 10:16:01;;;;;;;;;;;;;;;28.25;42.21;97374.23;606755;234;65831;-68
2022/12/01 10:18:30;;;;;;;;;;;;;;;28.26;42.50;97380.44;606449;233;64736;-68
2022/12/01 10:20:58;;;;;;;;;;;;;;;28.26;42.36;97375.81;606522;233;64784;-69
2022/12/01 10:23:28;;;;;;;;;;;;;;;28.26;45.30;97372.33;605836;233;65031;-69
2022/12/01 10:25:56;;;;;;;;;;;;;;;28.27;42.88;97373.94;605467;234;66997;-69
2022/12/01 10:28:42;;;;;;;;;;;;;;;28.28;41.23;97375.52;606338;234;66883;-68
2022/12/01 10:31:11;;;;;;;;;;;;;;;28.28;43.05;97365.50;606589;234;62918;-69
2022/12/01 10:33:46;;;;;;;;;;;;;;;28.27;42.63;97372.03;606416;233;67406;-69
2022/12/01 10:36:13;;;;;;;;;;;;;;;28.26;42.92;97375.03;606630;233;67492;-68
2022/12/01 10:38:40;;;;;;;;;;;;;;;28.26;43.17;97370.41;606649;234;65262;-67
2022/12/01 10:41:10;;;;;;;;;;;;;;;28.24;44.22;97369.95;606689;234;67220;-67
2022/12/01 10:43:39;;;;;;;;;;;;;;;28.24;41.52;97367.25;606779;234;64875;-65
2022/12/01 10:46:20;;;;;;;;;;;;;;;28.26;41.54;97365.01;605993;233;62986;-68
2022/12/01 10:48:58;;;;;;;;;;;;;;;28.25;43.03;97368.04;605865;234;67992;-67
2022/12/01 10:51:26;;;;;;;;;;;;;;;28.25;40.50;97368.83;605153;234;67064;-67
2022/12/01 10:53:55;;;;;;;;;;;;;;;28.26;43.47;97364.22;606007;234;64852;-67
2022/12/01 10:56:23;;;;;;;;;;;;;;;28.26;42.79;97367.71;605902;234;64723;-68
2022/12/01 10:58:52;;;;;;;;;;;;;;;28.26;42.64;97369.63;606022;234;64868;-67
2022/12/01 11:01:21;;;;;;;;;;;;;;;28.28;38.61;97362.80;606535;234;65045;-64
2022/12/01 11:03:51;;;;;;;;;;;;;;;28.28;38.75;97356.60;606745;234;67453;-65
2022/12/01 11:06:20;;;;;;;;;;;;;;;28.22;43.35;97364.05;606727;234;64977;-65
2022/12/01 11:08:52;;;;;;;;;;;;;;;28.20;41.96;97360.06;606438;233;62799;-64
2022/12/01 11:11:21;;;;;;;;;;;;;;;28.19;40.03;97363.87;606574;233;67317;-61
2022/12/01 11:13:49;;;;;;;;;;;;;;;28.22;41.54;97365.96;606487;233;67079;-65
2022/12/01 11:16:33;;;;;;;;;;;;;;;28.23;40.33;97359.44;606598;234;64983;-64
2022/12/01 11:19:19;;;;;;;;;;;;;;;28.27;40.11;97350.41;594212;238;68831;-64
2022/12/01 11:21:50;;;;;;;;;;;;;;;28.29;41.30;97342.80;604080;233;68763;-63
2022/12/01 11:24:28;;;;;;;;;;;;;;;28.31;40.15;97353.28;606556;234;65072;-65
2022/12/01 11:26:57;;;;;;;;;;;;;;;28.33;40.86;97351.06;606475;234;68969;-64
2022/12/01 11:29:29;;;;;;;;;;;;;;;28.35;39.94;97346.16;606682;234;68789;-65
2022/12/01 11:31:57;;;;;;;;;;;;;;;28.37;38.13;97348.53;605523;233;65065;-63
2022/12/01 11:34:33;;;;;;;;;;;;;;;28.39;42.19;97354.43;606646;234;66383;-63
2022/12/01 11:37:02;;;;;;;;;;;;;;;28.40;40.58;97354.13;606593;234;66661;-64
2022/12/01 11:39:31;;;;;;;;;;;;;;;28.42;42.79;97368.11;606505;234;65172;-62
2022/12/01 11:42:00;;;;;;;;;;;;;;;28.41;42.01;97361.13;606624;234;69074;-61
2022/12/01 11:44:28;;;;;;;;;;;;;;;28.43;38.00;97348.13;606535;233;66472;-62
2022/12/01 11:46:57;;;;;;;;;;;;;;;28.43;37.59;97344.61;606584;234;62981;-64
2022/12/01 11:49:26;;;;;;;;;;;;;;;28.45;41.31;97347.80;606538;234;68773;-64
2022/12/01 11:51:53;;;;;;;;;;;;;;;28.44;39.87;97344.30;606543;234;69162;-61
2022/12/01 11:54:22;;;;;;;;;;;;;;;28.45;43.33;97347.80;606661;234;65035;-66
2022/12/01 11:56:51;;;;;;;;;;;;;;;28.44;43.83;97349.72;606702;234;68869;-66
2022/12/01 11:59:20;;;;;;;;;;;;;;;28.44;41.35;97349.72;606521;234;68658;-65
2022/12/01 12:01:51;;;;;;;;;;;;;;;28.45;41.51;97340.48;606579;234;65055;-62
2022/12/01 12:04:20;;;;;;;;;;;;;;;28.44;43.47;97349.72;606507;233;68923;-63
2022/12/01 12:06:49;;;;;;;;;;;;;;;28.44;42.73;97348.92;606419;233;68744;-63
2022/12/01 12:09:18;;;;;;;;;;;;;;;28.45;44.80;97345.89;606314;233;65176;-63
2022/12/01 12:11:48;;;;;;;;;;;;;;;28.44;43.17;97347.02;606546;233;68476;-64
2022/12/01 12:14:24;;;;;;;;;;;;;;;28.45;42.92;97345.89;606569;234;48467;-63
2022/12/01 12:17:10;;;;;;;;;;;;;;;28.45;43.57;97348.59;606462;233;65068;-64
2022/12/01 12:19:39;;;;;;;;;;;;;;;28.46;45.13;97344.80;606576;234;68929;-65
2022/12/01 12:22:25;;;;;;;;;;;;;;;28.46;44.08;97350.20;606455;233;67163;-65
2022/12/01 12:24:55;;;;;;;;;;;;;;;28.48;42.75;97355.28;606563;234;65303;-64
2022/12/01 12:27:24;;;;;;;;;;;;;;;28.45;38.71;97348.59;606644;234;68799;-64
2022/12/01 12:29:53;;;;;;;;;;;;;;;28.47;43.16;97349.09;606630;234;66679;-64
2022/12/01 12:32:34;;;;;;;;;;;;;;;28.45;35.53;97350.50;606224;233;62697;-65
2022/12/01 12:35:19;;;;;;;;;;;;;;;28.49;38.04;97351.49;606560;234;66554;-65
2022/12/01 12:37:54;;;;;;;;;;;;;;;28.44;44.88;97355.13;606649;234;66575;-65
2022/12/01 12:40:24;;;;;;;;;;;;;;;28.40;41.98;97353.31;606578;234;65334;-65
2022/12/01 12:43:05;;;;;;;;;;;;;;;28.39;43.46;97349.81;606060;234;71219;-65
2022/12/01 12:45:37;;;;;;;;;;;;;;;28.38;41.88;97344.73;606614;234;68707;-64
2022/12/01 12:48:06;;;;;;;;;;;;;;;28.37;40.96;97349.32;606263;233;65351;-64
2022/12/01 12:50:38;;;;;;;;;;;;;;;28.36;42.42;97350.44;606447;233;68832;-65
2022/12/01 12:53:07;;;;;;;;;;;;;;;28.35;43.76;97343.45;606420;233;66638;-64
2022/12/01 12:55:39;;;;;;;;;;;;;;;28.35;44.95;97348.86;606418;233;63992;-64
2022/12/01 12:58:08;;;;;;;;;;;;;;;28.35;42.58;97351.56;606561;234;68838;-64
2022/12/01 13:00:36;;;;;;;;;;;;;;;28.34;43.60;97352.66;606543;233;68480;-64
2022/12/01 13:03:10;;;;;;;;;;;;;;;28.35;42.88;97340.75;606561;234;63841;-64
2022/12/01 13:05:48;;;;;;;;;;;;;;;28.35;42.62;97343.45;606442;233;66679;-64